sensor_id;sensor_type;location;lat;lon;timestamp;P1;durP1;ratioP1;P2;durP2;ratioP2
27163;SDS011;14685;50.618;7.024;2023-08-30T00:01:38;5.03;;;4.18;;
27163;SDS011;14685;50.618;7.024;2023-08-30T00:04:06;4.00;;;3.63;;
27163;SDS011;14685;50.618;7.024;2023-08-30T00:06:34;6.72;;;4.65;;
27163;SDS011;14685;50.618;7.024;2023-08-30T00:09:00;7.07;;;4.60;;
27163;SDS011;14685;50.618;7.024;2023-08-30T00:11:28;4.55;;;4.00;;
27163;SDS011;14685;50.618;7.024;2023-08-30T00:14:02;8.38;;;4.30;;
27163;SDS011;14685;50.618;7.024;2023-08-30T00:16:32;5.85;;;4.20;;
27163;SDS011;14685;50.618;7.024;2023-08-30T00:19:00;6.30;;;4.47;;
27163;SDS011;14685;50.618;7.024;2023-08-30T00:21:27;4.32;;;3.92;;
27163;SDS011;14685;50.618;7.024;2023-08-30T00:23:54;4.18;;;3.80;;
27163;SDS011;14685;50.618;7.024;2023-08-30T00:26:21;5.43;;;3.65;;
27163;SDS011;14685;50.618;7.024;2023-08-30T00:28:48;5.10;;;4.57;;
27163;SDS011;14685;50.618;7.024;2023-08-30T00:31:15;5.90;;;4.18;;
27163;SDS011;14685;50.618;7.024;2023-08-30T00:33:44;6.10;;;4.35;;
27163;SDS011;14685;50.618;7.024;2023-08-30T00:36:11;6.00;;;4.53;;
27163;SDS011;14685;50.618;7.024;2023-08-30T00:38:38;7.10;;;4.22;;
27163;SDS011;14685;50.618;7.024;2023-08-30T00:41:05;4.65;;;4.25;;
27163;SDS011;14685;50.618;7.024;2023-08-30T00:43:32;6.20;;;4.50;;
27163;SDS011;14685;50.618;7.024;2023-08-30T00:45:59;5.88;;;4.20;;
27163;SDS011;14685;50.618;7.024;2023-08-30T00:48:26;6.13;;;4.22;;
27163;SDS011;14685;50.618;7.024;2023-08-30T00:50:54;4.82;;;4.32;;
27163;SDS011;14685;50.618;7.024;2023-08-30T00:53:21;5.45;;;4.22;;
27163;SDS011;14685;50.618;7.024;2023-08-30T00:55:48;4.18;;;3.78;;
27163;SDS011;14685;50.618;7.024;2023-08-30T00:58:15;5.60;;;3.95;;
27163;SDS011;14685;50.618;7.024;2023-08-30T01:00:42;6.18;;;4.82;;
27163;SDS011;14685;50.618;7.024;2023-08-30T01:03:09;5.82;;;4.35;;
27163;SDS011;14685;50.618;7.024;2023-08-30T01:05:37;8.65;;;4.50;;
27163;SDS011;14685;50.618;7.024;2023-08-30T01:08:04;5.00;;;4.15;;
27163;SDS011;14685;50.618;7.024;2023-08-30T01:10:38;7.13;;;4.70;;
27163;SDS011;14685;50.618;7.024;2023-08-30T01:13:12;8.27;;;4.68;;
27163;SDS011;14685;50.618;7.024;2023-08-30T01:15:45;5.50;;;4.05;;
27163;SDS011;14685;50.618;7.024;2023-08-30T01:18:15;5.05;;;3.95;;
27163;SDS011;14685;50.618;7.024;2023-08-30T01:20:44;4.85;;;4.32;;
27163;SDS011;14685;50.618;7.024;2023-08-30T01:26:14;5.18;;;4.53;;
27163;SDS011;14685;50.618;7.024;2023-08-30T01:28:53;8.25;;;4.82;;
27163;SDS011;14685;50.618;7.024;2023-08-30T01:31:23;5.88;;;4.82;;
27163;SDS011;14685;50.618;7.024;2023-08-30T01:33:52;6.00;;;4.57;;
27163;SDS011;14685;50.618;7.024;2023-08-30T01:36:19;7.97;;;4.38;;
27163;SDS011;14685;50.618;7.024;2023-08-30T01:38:46;5.85;;;4.30;;
27163;SDS011;14685;50.618;7.024;2023-08-30T01:41:13;4.35;;;3.80;;
27163;SDS011;14685;50.618;7.024;2023-08-30T01:43:42;6.07;;;4.55;;
27163;SDS011;14685;50.618;7.024;2023-08-30T01:46:09;5.10;;;4.43;;
27163;SDS011;14685;50.618;7.024;2023-08-30T01:48:37;6.47;;;5.15;;
27163;SDS011;14685;50.618;7.024;2023-08-30T01:51:05;5.22;;;4.72;;
27163;SDS011;14685;50.618;7.024;2023-08-30T01:53:34;6.55;;;4.95;;
27163;SDS011;14685;50.618;7.024;2023-08-30T01:56:01;7.60;;;4.22;;
27163;SDS011;14685;50.618;7.024;2023-08-30T01:58:28;6.70;;;4.57;;
27163;SDS011;14685;50.618;7.024;2023-08-30T02:00:55;5.05;;;4.22;;
27163;SDS011;14685;50.618;7.024;2023-08-30T02:03:23;6.20;;;4.70;;
27163;SDS011;14685;50.618;7.024;2023-08-30T02:06:04;6.43;;;4.63;;
27163;SDS011;14685;50.618;7.024;2023-08-30T02:11:11;5.90;;;4.90;;
27163;SDS011;14685;50.618;7.024;2023-08-30T02:13:43;5.78;;;4.50;;
27163;SDS011;14685;50.618;7.024;2023-08-30T02:16:12;7.57;;;4.85;;
27163;SDS011;14685;50.618;7.024;2023-08-30T02:18:42;5.35;;;4.05;;
27163;SDS011;14685;50.618;7.024;2023-08-30T02:21:09;7.30;;;4.75;;
27163;SDS011;14685;50.618;7.024;2023-08-30T02:23:36;7.53;;;5.07;;
27163;SDS011;14685;50.618;7.024;2023-08-30T02:26:03;7.07;;;4.75;;
27163;SDS011;14685;50.618;7.024;2023-08-30T02:28:30;5.68;;;4.38;;
27163;SDS011;14685;50.618;7.024;2023-08-30T02:30:57;9.43;;;4.90;;
27163;SDS011;14685;50.618;7.024;2023-08-30T02:33:24;7.03;;;4.97;;
27163;SDS011;14685;50.618;7.024;2023-08-30T02:35:51;5.55;;;4.75;;
27163;SDS011;14685;50.618;7.024;2023-08-30T02:38:20;7.00;;;5.28;;
27163;SDS011;14685;50.618;7.024;2023-08-30T02:40:47;4.78;;;4.32;;
27163;SDS011;14685;50.618;7.024;2023-08-30T02:43:14;5.95;;;4.40;;
27163;SDS011;14685;50.618;7.024;2023-08-30T02:45:41;6.45;;;4.45;;
27163;SDS011;14685;50.618;7.024;2023-08-30T02:48:08;8.00;;;5.15;;
27163;SDS011;14685;50.618;7.024;2023-08-30T02:50:35;5.53;;;5.03;;
27163;SDS011;14685;50.618;7.024;2023-08-30T02:53:02;6.53;;;4.40;;
27163;SDS011;14685;50.618;7.024;2023-08-30T02:55:30;6.82;;;4.35;;
27163;SDS011;14685;50.618;7.024;2023-08-30T02:57:57;5.70;;;4.45;;
27163;SDS011;14685;50.618;7.024;2023-08-30T03:00:24;6.93;;;4.55;;
27163;SDS011;14685;50.618;7.024;2023-08-30T03:02:51;5.93;;;4.20;;
27163;SDS011;14685;50.618;7.024;2023-08-30T03:05:18;5.63;;;4.10;;
27163;SDS011;14685;50.618;7.024;2023-08-30T03:07:45;7.20;;;4.70;;
27163;SDS011;14685;50.618;7.024;2023-08-30T03:10:12;7.70;;;5.05;;
27163;SDS011;14685;50.618;7.024;2023-08-30T03:12:40;5.20;;;4.65;;
27163;SDS011;14685;50.618;7.024;2023-08-30T03:15:07;5.53;;;4.72;;
27163;SDS011;14685;50.618;7.024;2023-08-30T03:17:35;5.28;;;4.75;;
27163;SDS011;14685;50.618;7.024;2023-08-30T03:20:03;6.68;;;4.78;;
27163;SDS011;14685;50.618;7.024;2023-08-30T03:22:32;7.65;;;5.28;;
27163;SDS011;14685;50.618;7.024;2023-08-30T03:24:59;5.90;;;4.50;;
27163;SDS011;14685;50.618;7.024;2023-08-30T03:27:27;6.25;;;5.15;;
27163;SDS011;14685;50.618;7.024;2023-08-30T03:29:55;6.28;;;4.78;;
27163;SDS011;14685;50.618;7.024;2023-08-30T03:32:22;5.20;;;4.70;;
27163;SDS011;14685;50.618;7.024;2023-08-30T03:34:49;7.53;;;5.22;;
27163;SDS011;14685;50.618;7.024;2023-08-30T03:37:17;6.35;;;5.20;;
27163;SDS011;14685;50.618;7.024;2023-08-30T03:39:44;7.07;;;5.50;;
27163;SDS011;14685;50.618;7.024;2023-08-30T03:42:14;10.57;;;5.00;;
27163;SDS011;14685;50.618;7.024;2023-08-30T03:44:41;7.10;;;5.82;;
27163;SDS011;14685;50.618;7.024;2023-08-30T03:47:08;5.85;;;5.25;;
27163;SDS011;14685;50.618;7.024;2023-08-30T03:49:35;8.27;;;5.28;;
27163;SDS011;14685;50.618;7.024;2023-08-30T03:52:03;5.63;;;4.78;;
27163;SDS011;14685;50.618;7.024;2023-08-30T03:54:31;6.95;;;4.60;;
27163;SDS011;14685;50.618;7.024;2023-08-30T03:56:58;8.98;;;4.88;;
27163;SDS011;14685;50.618;7.024;2023-08-30T03:59:25;6.93;;;5.25;;
27163;SDS011;14685;50.618;7.024;2023-08-30T04:01:54;12.13;;;5.45;;
27163;SDS011;14685;50.618;7.024;2023-08-30T04:04:21;8.38;;;5.43;;
27163;SDS011;14685;50.618;7.024;2023-08-30T04:06:49;6.40;;;5.10;;
27163;SDS011;14685;50.618;7.024;2023-08-30T04:09:16;9.45;;;5.68;;
27163;SDS011;14685;50.618;7.024;2023-08-30T04:11:43;8.65;;;5.88;;
27163;SDS011;14685;50.618;7.024;2023-08-30T04:14:10;6.45;;;5.75;;
27163;SDS011;14685;50.618;7.024;2023-08-30T04:16:37;7.95;;;5.88;;
27163;SDS011;14685;50.618;7.024;2023-08-30T04:19:04;8.30;;;5.15;;
27163;SDS011;14685;50.618;7.024;2023-08-30T04:21:31;9.45;;;6.32;;
27163;SDS011;14685;50.618;7.024;2023-08-30T04:23:58;8.63;;;5.18;;
27163;SDS011;14685;50.618;7.024;2023-08-30T04:26:27;6.85;;;5.97;;
27163;SDS011;14685;50.618;7.024;2023-08-30T04:28:54;7.47;;;5.85;;
27163;SDS011;14685;50.618;7.024;2023-08-30T04:31:21;7.63;;;5.88;;
27163;SDS011;14685;50.618;7.024;2023-08-30T04:33:48;9.48;;;6.35;;
27163;SDS011;14685;50.618;7.024;2023-08-30T04:36:15;10.35;;;6.45;;
27163;SDS011;14685;50.618;7.024;2023-08-30T04:38:42;8.48;;;6.18;;
27163;SDS011;14685;50.618;7.024;2023-08-30T04:41:25;6.75;;;6.05;;
27163;SDS011;14685;50.618;7.024;2023-08-30T04:43:52;7.30;;;6.28;;
27163;SDS011;14685;50.618;7.024;2023-08-30T04:46:19;8.70;;;6.10;;
27163;SDS011;14685;50.618;7.024;2023-08-30T04:48:47;8.20;;;6.72;;
27163;SDS011;14685;50.618;7.024;2023-08-30T04:51:14;9.23;;;6.32;;
27163;SDS011;14685;50.618;7.024;2023-08-30T04:53:41;7.57;;;5.53;;
27163;SDS011;14685;50.618;7.024;2023-08-30T04:56:10;8.32;;;5.97;;
27163;SDS011;14685;50.618;7.024;2023-08-30T04:58:40;6.80;;;5.72;;
27163;SDS011;14685;50.618;7.024;2023-08-30T05:01:07;10.23;;;6.63;;
27163;SDS011;14685;50.618;7.024;2023-08-30T05:03:35;7.18;;;5.75;;
27163;SDS011;14685;50.618;7.024;2023-08-30T05:06:04;7.55;;;6.32;;
27163;SDS011;14685;50.618;7.024;2023-08-30T05:08:32;6.15;;;5.55;;
27163;SDS011;14685;50.618;7.024;2023-08-30T05:11:00;8.43;;;5.90;;
27163;SDS011;14685;50.618;7.024;2023-08-30T05:13:31;9.65;;;6.13;;
27163;SDS011;14685;50.618;7.024;2023-08-30T05:15:58;7.28;;;5.90;;
27163;SDS011;14685;50.618;7.024;2023-08-30T05:18:26;7.72;;;6.13;;
27163;SDS011;14685;50.618;7.024;2023-08-30T05:20:53;9.23;;;6.57;;
27163;SDS011;14685;50.618;7.024;2023-08-30T05:23:20;9.27;;;6.07;;
27163;SDS011;14685;50.618;7.024;2023-08-30T05:25:47;9.50;;;6.57;;
27163;SDS011;14685;50.618;7.024;2023-08-30T05:28:13;7.88;;;6.75;;
27163;SDS011;14685;50.618;7.024;2023-08-30T05:30:41;8.00;;;7.03;;
27163;SDS011;14685;50.618;7.024;2023-08-30T05:33:11;7.65;;;6.35;;
27163;SDS011;14685;50.618;7.024;2023-08-30T05:35:38;7.63;;;6.80;;
27163;SDS011;14685;50.618;7.024;2023-08-30T05:38:04;8.52;;;6.78;;
27163;SDS011;14685;50.618;7.024;2023-08-30T05:40:32;9.82;;;6.97;;
27163;SDS011;14685;50.618;7.024;2023-08-30T05:42:59;8.02;;;6.50;;
27163;SDS011;14685;50.618;7.024;2023-08-30T05:45:26;9.10;;;7.25;;
27163;SDS011;14685;50.618;7.024;2023-08-30T05:47:53;7.18;;;6.47;;
27163;SDS011;14685;50.618;7.024;2023-08-30T05:50:20;8.70;;;6.85;;
27163;SDS011;14685;50.618;7.024;2023-08-30T05:52:47;8.18;;;6.50;;
27163;SDS011;14685;50.618;7.024;2023-08-30T05:55:15;9.25;;;7.50;;
27163;SDS011;14685;50.618;7.024;2023-08-30T05:57:42;11.55;;;7.07;;
27163;SDS011;14685;50.618;7.024;2023-08-30T06:00:09;9.23;;;7.22;;
27163;SDS011;14685;50.618;7.024;2023-08-30T06:02:37;8.85;;;7.57;;
27163;SDS011;14685;50.618;7.024;2023-08-30T06:05:04;8.93;;;7.60;;
27163;SDS011;14685;50.618;7.024;2023-08-30T06:07:31;12.07;;;8.20;;
27163;SDS011;14685;50.618;7.024;2023-08-30T06:09:58;9.35;;;7.70;;
27163;SDS011;14685;50.618;7.024;2023-08-30T06:12:25;13.25;;;8.10;;
27163;SDS011;14685;50.618;7.024;2023-08-30T06:14:52;9.38;;;7.40;;
27163;SDS011;14685;50.618;7.024;2023-08-30T06:17:20;12.50;;;8.35;;
27163;SDS011;14685;50.618;7.024;2023-08-30T06:19:47;9.43;;;7.97;;
27163;SDS011;14685;50.618;7.024;2023-08-30T06:22:15;9.40;;;8.07;;
27163;SDS011;14685;50.618;7.024;2023-08-30T06:24:42;8.98;;;7.45;;
27163;SDS011;14685;50.618;7.024;2023-08-30T06:27:09;11.93;;;7.38;;
27163;SDS011;14685;50.618;7.024;2023-08-30T06:29:36;10.20;;;8.13;;
27163;SDS011;14685;50.618;7.024;2023-08-30T06:32:03;10.40;;;8.18;;
27163;SDS011;14685;50.618;7.024;2023-08-30T06:34:31;9.60;;;7.93;;
27163;SDS011;14685;50.618;7.024;2023-08-30T06:36:59;11.43;;;8.98;;
27163;SDS011;14685;50.618;7.024;2023-08-30T06:39:34;9.63;;;8.27;;
27163;SDS011;14685;50.618;7.024;2023-08-30T06:42:03;10.80;;;7.22;;
27163;SDS011;14685;50.618;7.024;2023-08-30T06:44:30;12.00;;;7.57;;
27163;SDS011;14685;50.618;7.024;2023-08-30T06:46:58;9.70;;;6.72;;
27163;SDS011;14685;50.618;7.024;2023-08-30T06:51:59;10.68;;;7.93;;
27163;SDS011;14685;50.618;7.024;2023-08-30T06:54:30;9.65;;;6.97;;
27163;SDS011;14685;50.618;7.024;2023-08-30T06:56:59;10.05;;;7.32;;
27163;SDS011;14685;50.618;7.024;2023-08-30T06:59:27;9.63;;;7.32;;
27163;SDS011;14685;50.618;7.024;2023-08-30T07:01:54;10.27;;;7.20;;
27163;SDS011;14685;50.618;7.024;2023-08-30T07:04:24;8.02;;;6.47;;
27163;SDS011;14685;50.618;7.024;2023-08-30T07:06:51;9.02;;;5.75;;
27163;SDS011;14685;50.618;7.024;2023-08-30T07:09:18;7.20;;;6.05;;
27163;SDS011;14685;50.618;7.024;2023-08-30T07:11:48;9.48;;;6.45;;
27163;SDS011;14685;50.618;7.024;2023-08-30T07:14:15;10.45;;;7.10;;
27163;SDS011;14685;50.618;7.024;2023-08-30T07:16:43;9.25;;;6.35;;
27163;SDS011;14685;50.618;7.024;2023-08-30T07:19:11;9.10;;;7.00;;
27163;SDS011;14685;50.618;7.024;2023-08-30T07:21:37;7.00;;;6.22;;
27163;SDS011;14685;50.618;7.024;2023-08-30T07:24:06;10.88;;;6.60;;
27163;SDS011;14685;50.618;7.024;2023-08-30T07:26:33;9.27;;;6.40;;
27163;SDS011;14685;50.618;7.024;2023-08-30T07:29:02;9.13;;;6.25;;
27163;SDS011;14685;50.618;7.024;2023-08-30T07:31:32;9.23;;;6.20;;
27163;SDS011;14685;50.618;7.024;2023-08-30T07:34:00;8.30;;;5.55;;
27163;SDS011;14685;50.618;7.024;2023-08-30T07:36:27;6.68;;;5.97;;
27163;SDS011;14685;50.618;7.024;2023-08-30T07:39:12;8.40;;;5.75;;
27163;SDS011;14685;50.618;7.024;2023-08-30T07:41:39;8.02;;;5.78;;
27163;SDS011;14685;50.618;7.024;2023-08-30T07:44:06;9.85;;;5.65;;
27163;SDS011;14685;50.618;7.024;2023-08-30T07:46:33;7.32;;;5.18;;
27163;SDS011;14685;50.618;7.024;2023-08-30T07:49:00;6.47;;;5.28;;
27163;SDS011;14685;50.618;7.024;2023-08-30T07:51:29;5.82;;;5.10;;
27163;SDS011;14685;50.618;7.024;2023-08-30T07:53:56;8.13;;;5.63;;
27163;SDS011;14685;50.618;7.024;2023-08-30T07:56:24;8.00;;;5.18;;
27163;SDS011;14685;50.618;7.024;2023-08-30T07:58:51;8.82;;;5.30;;
27163;SDS011;14685;50.618;7.024;2023-08-30T08:01:18;6.20;;;4.22;;
27163;SDS011;14685;50.618;7.024;2023-08-30T08:03:45;8.02;;;4.35;;
27163;SDS011;14685;50.618;7.024;2023-08-30T08:06:31;6.55;;;4.25;;
27163;SDS011;14685;50.618;7.024;2023-08-30T08:09:00;4.00;;;3.60;;
27163;SDS011;14685;50.618;7.024;2023-08-30T08:11:27;5.68;;;4.10;;
27163;SDS011;14685;50.618;7.024;2023-08-30T08:13:54;8.18;;;3.75;;
27163;SDS011;14685;50.618;7.024;2023-08-30T08:16:21;6.38;;;4.03;;
27163;SDS011;14685;50.618;7.024;2023-08-30T08:18:48;7.47;;;4.22;;
27163;SDS011;14685;50.618;7.024;2023-08-30T08:21:17;6.40;;;3.78;;
27163;SDS011;14685;50.618;7.024;2023-08-30T08:23:44;6.32;;;3.75;;
27163;SDS011;14685;50.618;7.024;2023-08-30T08:26:11;5.32;;;3.65;;
27163;SDS011;14685;50.618;7.024;2023-08-30T08:28:38;6.00;;;3.38;;
27163;SDS011;14685;50.618;7.024;2023-08-30T08:31:06;6.28;;;4.03;;
27163;SDS011;14685;50.618;7.024;2023-08-30T08:33:33;4.45;;;3.78;;
27163;SDS011;14685;50.618;7.024;2023-08-30T08:36:00;4.38;;;3.13;;
27163;SDS011;14685;50.618;7.024;2023-08-30T08:38:28;4.85;;;3.65;;
27163;SDS011;14685;50.618;7.024;2023-08-30T08:41:16;7.70;;;4.07;;
27163;SDS011;14685;50.618;7.024;2023-08-30T08:43:43;5.13;;;3.50;;
27163;SDS011;14685;50.618;7.024;2023-08-30T08:46:11;7.07;;;3.53;;
27163;SDS011;14685;50.618;7.024;2023-08-30T08:48:41;6.97;;;3.83;;
27163;SDS011;14685;50.618;7.024;2023-08-30T08:51:11;6.88;;;3.83;;
27163;SDS011;14685;50.618;7.024;2023-08-30T08:53:38;4.95;;;3.55;;
27163;SDS011;14685;50.618;7.024;2023-08-30T08:56:06;5.80;;;4.15;;
27163;SDS011;14685;50.618;7.024;2023-08-30T08:58:35;6.13;;;3.63;;
27163;SDS011;14685;50.618;7.024;2023-08-30T09:01:03;7.30;;;3.78;;
27163;SDS011;14685;50.618;7.024;2023-08-30T09:03:33;7.00;;;3.25;;
27163;SDS011;14685;50.618;7.024;2023-08-30T09:06:02;5.18;;;3.53;;
27163;SDS011;14685;50.618;7.024;2023-08-30T09:08:29;4.75;;;3.45;;
27163;SDS011;14685;50.618;7.024;2023-08-30T09:10:59;7.63;;;4.07;;
27163;SDS011;14685;50.618;7.024;2023-08-30T09:13:27;5.78;;;3.65;;
27163;SDS011;14685;50.618;7.024;2023-08-30T09:15:54;6.68;;;4.13;;
27163;SDS011;14685;50.618;7.024;2023-08-30T09:18:21;6.40;;;3.45;;
27163;SDS011;14685;50.618;7.024;2023-08-30T09:20:47;6.40;;;3.28;;
27163;SDS011;14685;50.618;7.024;2023-08-30T09:23:20;5.80;;;3.08;;
27163;SDS011;14685;50.618;7.024;2023-08-30T09:25:53;5.45;;;3.28;;
27163;SDS011;14685;50.618;7.024;2023-08-30T09:28:22;4.70;;;3.15;;
27163;SDS011;14685;50.618;7.024;2023-08-30T09:30:49;3.53;;;2.65;;
27163;SDS011;14685;50.618;7.024;2023-08-30T09:33:21;3.92;;;2.70;;
27163;SDS011;14685;50.618;7.024;2023-08-30T09:35:49;8.10;;;3.05;;
27163;SDS011;14685;50.618;7.024;2023-08-30T09:38:17;6.57;;;2.80;;
27163;SDS011;14685;50.618;7.024;2023-08-30T09:40:45;6.97;;;2.80;;
27163;SDS011;14685;50.618;7.024;2023-08-30T09:43:12;5.15;;;2.47;;
27163;SDS011;14685;50.618;7.024;2023-08-30T09:45:41;4.88;;;2.90;;
27163;SDS011;14685;50.618;7.024;2023-08-30T09:48:08;3.40;;;2.38;;
27163;SDS011;14685;50.618;7.024;2023-08-30T09:50:36;5.18;;;2.88;;
27163;SDS011;14685;50.618;7.024;2023-08-30T09:53:07;4.45;;;3.00;;
27163;SDS011;14685;50.618;7.024;2023-08-30T09:55:38;6.63;;;3.25;;
27163;SDS011;14685;50.618;7.024;2023-08-30T09:58:05;3.67;;;2.78;;
27163;SDS011;14685;50.618;7.024;2023-08-30T10:00:33;5.07;;;3.15;;
27163;SDS011;14685;50.618;7.024;2023-08-30T10:03:00;4.93;;;2.95;;
27163;SDS011;14685;50.618;7.024;2023-08-30T10:05:48;4.43;;;3.05;;
27163;SDS011;14685;50.618;7.024;2023-08-30T10:08:15;5.88;;;2.97;;
27163;SDS011;14685;50.618;7.024;2023-08-30T10:10:43;5.20;;;3.13;;
27163;SDS011;14685;50.618;7.024;2023-08-30T10:13:11;3.80;;;2.80;;
27163;SDS011;14685;50.618;7.024;2023-08-30T10:15:40;5.95;;;3.13;;
27163;SDS011;14685;50.618;7.024;2023-08-30T10:18:12;4.07;;;2.97;;
27163;SDS011;14685;50.618;7.024;2023-08-30T10:20:44;4.43;;;2.97;;
27163;SDS011;14685;50.618;7.024;2023-08-30T10:23:12;6.18;;;2.60;;
27163;SDS011;14685;50.618;7.024;2023-08-30T10:25:41;6.03;;;3.08;;
27163;SDS011;14685;50.618;7.024;2023-08-30T10:28:09;3.67;;;2.80;;
27163;SDS011;14685;50.618;7.024;2023-08-30T10:30:38;4.00;;;2.55;;
27163;SDS011;14685;50.618;7.024;2023-08-30T10:33:11;4.53;;;2.75;;
27163;SDS011;14685;50.618;7.024;2023-08-30T10:35:49;4.72;;;2.85;;
27163;SDS011;14685;50.618;7.024;2023-08-30T10:38:27;3.90;;;2.47;;
27163;SDS011;14685;50.618;7.024;2023-08-30T10:40:55;4.00;;;2.50;;
27163;SDS011;14685;50.618;7.024;2023-08-30T10:43:33;4.57;;;2.85;;
27163;SDS011;14685;50.618;7.024;2023-08-30T10:46:02;5.35;;;2.30;;
27163;SDS011;14685;50.618;7.024;2023-08-30T10:48:34;3.47;;;2.40;;
27163;SDS011;14685;50.618;7.024;2023-08-30T10:51:06;4.68;;;2.40;;
27163;SDS011;14685;50.618;7.024;2023-08-30T10:53:55;3.53;;;2.10;;
27163;SDS011;14685;50.618;7.024;2023-08-30T10:56:27;2.92;;;2.00;;
27163;SDS011;14685;50.618;7.024;2023-08-30T10:58:59;3.25;;;2.13;;
27163;SDS011;14685;50.618;7.024;2023-08-30T11:01:29;5.15;;;2.22;;
27163;SDS011;14685;50.618;7.024;2023-08-30T11:03:56;6.00;;;2.30;;
27163;SDS011;14685;50.618;7.024;2023-08-30T11:06:41;5.18;;;2.58;;
27163;SDS011;14685;50.618;7.024;2023-08-30T11:09:09;4.68;;;2.10;;
27163;SDS011;14685;50.618;7.024;2023-08-30T11:11:38;4.85;;;2.15;;
27163;SDS011;14685;50.618;7.024;2023-08-30T11:14:06;4.45;;;2.30;;
27163;SDS011;14685;50.618;7.024;2023-08-30T11:16:36;5.75;;;2.35;;
27163;SDS011;14685;50.618;7.024;2023-08-30T11:19:03;4.68;;;2.95;;
27163;SDS011;14685;50.618;7.024;2023-08-30T11:21:34;3.80;;;2.08;;
27163;SDS011;14685;50.618;7.024;2023-08-30T11:24:03;3.78;;;2.30;;
27163;SDS011;14685;50.618;7.024;2023-08-30T11:26:31;6.07;;;2.92;;
27163;SDS011;14685;50.618;7.024;2023-08-30T11:29:06;8.10;;;2.65;;
27163;SDS011;14685;50.618;7.024;2023-08-30T11:31:34;2.80;;;2.25;;
27163;SDS011;14685;50.618;7.024;2023-08-30T11:34:02;3.28;;;2.13;;
27163;SDS011;14685;50.618;7.024;2023-08-30T11:36:30;4.35;;;2.13;;
27163;SDS011;14685;50.618;7.024;2023-08-30T11:38:59;4.25;;;2.20;;
27163;SDS011;14685;50.618;7.024;2023-08-30T11:41:26;4.20;;;2.20;;
27163;SDS011;14685;50.618;7.024;2023-08-30T11:43:54;3.20;;;1.98;;
27163;SDS011;14685;50.618;7.024;2023-08-30T11:46:21;4.80;;;2.20;;
27163;SDS011;14685;50.618;7.024;2023-08-30T11:48:49;2.95;;;2.20;;
27163;SDS011;14685;50.618;7.024;2023-08-30T11:51:18;3.88;;;2.50;;
27163;SDS011;14685;50.618;7.024;2023-08-30T11:53:46;3.55;;;2.05;;
27163;SDS011;14685;50.618;7.024;2023-08-30T11:56:13;3.97;;;2.45;;
27163;SDS011;14685;50.618;7.024;2023-08-30T11:58:41;2.70;;;2.40;;
27163;SDS011;14685;50.618;7.024;2023-08-30T12:01:08;3.58;;;2.53;;
27163;SDS011;14685;50.618;7.024;2023-08-30T12:03:35;4.82;;;2.30;;
27163;SDS011;14685;50.618;7.024;2023-08-30T12:06:08;5.10;;;2.58;;
27163;SDS011;14685;50.618;7.024;2023-08-30T12:08:38;3.13;;;2.20;;
27163;SDS011;14685;50.618;7.024;2023-08-30T12:11:16;3.05;;;2.20;;
27163;SDS011;14685;50.618;7.024;2023-08-30T12:13:46;2.85;;;2.25;;
27163;SDS011;14685;50.618;7.024;2023-08-30T12:16:15;2.13;;;1.83;;
27163;SDS011;14685;50.618;7.024;2023-08-30T12:18:44;2.60;;;2.25;;
27163;SDS011;14685;50.618;7.024;2023-08-30T12:21:12;3.42;;;2.20;;
27163;SDS011;14685;50.618;7.024;2023-08-30T12:23:41;4.03;;;2.40;;
27163;SDS011;14685;50.618;7.024;2023-08-30T12:26:11;4.55;;;2.00;;
27163;SDS011;14685;50.618;7.024;2023-08-30T12:28:39;3.05;;;2.25;;
27163;SDS011;14685;50.618;7.024;2023-08-30T12:31:07;2.95;;;2.08;;
27163;SDS011;14685;50.618;7.024;2023-08-30T12:33:34;4.47;;;1.70;;
27163;SDS011;14685;50.618;7.024;2023-08-30T12:36:01;2.50;;;1.70;;
27163;SDS011;14685;50.618;7.024;2023-08-30T12:38:30;4.22;;;2.22;;
27163;SDS011;14685;50.618;7.024;2023-08-30T12:40:57;4.82;;;2.20;;
27163;SDS011;14685;50.618;7.024;2023-08-30T12:43:24;2.63;;;2.08;;
27163;SDS011;14685;50.618;7.024;2023-08-30T12:45:51;3.80;;;1.73;;
27163;SDS011;14685;50.618;7.024;2023-08-30T12:48:18;3.15;;;1.67;;
27163;SDS011;14685;50.618;7.024;2023-08-30T12:50:46;3.13;;;1.95;;
27163;SDS011;14685;50.618;7.024;2023-08-30T12:53:15;2.75;;;2.10;;
27163;SDS011;14685;50.618;7.024;2023-08-30T12:55:44;2.17;;;1.98;;
27163;SDS011;14685;50.618;7.024;2023-08-30T12:58:11;5.78;;;2.35;;
27163;SDS011;14685;50.618;7.024;2023-08-30T13:00:40;3.78;;;2.35;;
27163;SDS011;14685;50.618;7.024;2023-08-30T13:03:08;4.45;;;1.83;;
27163;SDS011;14685;50.618;7.024;2023-08-30T13:05:35;3.65;;;2.22;;
27163;SDS011;14685;50.618;7.024;2023-08-30T13:08:02;4.07;;;2.05;;
27163;SDS011;14685;50.618;7.024;2023-08-30T13:10:30;4.93;;;1.98;;
27163;SDS011;14685;50.618;7.024;2023-08-30T13:12:58;2.92;;;2.10;;
27163;SDS011;14685;50.618;7.024;2023-08-30T13:15:25;4.68;;;2.28;;
27163;SDS011;14685;50.618;7.024;2023-08-30T13:17:53;3.72;;;2.15;;
27163;SDS011;14685;50.618;7.024;2023-08-30T13:20:20;2.88;;;2.45;;
27163;SDS011;14685;50.618;7.024;2023-08-30T13:22:47;5.13;;;2.97;;
27163;SDS011;14685;50.618;7.024;2023-08-30T13:25:14;5.97;;;2.70;;
27163;SDS011;14685;50.618;7.024;2023-08-30T13:27:41;3.60;;;2.53;;
27163;SDS011;14685;50.618;7.024;2023-08-30T13:30:09;4.55;;;2.58;;
27163;SDS011;14685;50.618;7.024;2023-08-30T13:32:36;3.78;;;2.63;;
27163;SDS011;14685;50.618;7.024;2023-08-30T13:35:04;4.93;;;2.53;;
27163;SDS011;14685;50.618;7.024;2023-08-30T13:37:31;5.30;;;2.45;;
27163;SDS011;14685;50.618;7.024;2023-08-30T13:39:59;4.38;;;2.25;;
27163;SDS011;14685;50.618;7.024;2023-08-30T13:42:26;3.00;;;2.00;;
27163;SDS011;14685;50.618;7.024;2023-08-30T13:44:53;2.30;;;1.45;;
27163;SDS011;14685;50.618;7.024;2023-08-30T13:47:21;2.47;;;1.90;;
27163;SDS011;14685;50.618;7.024;2023-08-30T13:49:48;3.13;;;1.73;;
27163;SDS011;14685;50.618;7.024;2023-08-30T13:52:15;3.90;;;1.70;;
27163;SDS011;14685;50.618;7.024;2023-08-30T13:54:43;1.88;;;1.67;;
27163;SDS011;14685;50.618;7.024;2023-08-30T13:57:11;2.60;;;1.52;;
27163;SDS011;14685;50.618;7.024;2023-08-30T13:59:38;1.98;;;1.77;;
27163;SDS011;14685;50.618;7.024;2023-08-30T14:02:05;2.38;;;1.88;;
27163;SDS011;14685;50.618;7.024;2023-08-30T14:04:34;4.47;;;2.40;;
27163;SDS011;14685;50.618;7.024;2023-08-30T14:07:03;1.80;;;1.60;;
27163;SDS011;14685;50.618;7.024;2023-08-30T14:09:30;2.63;;;1.92;;
27163;SDS011;14685;50.618;7.024;2023-08-30T14:11:59;1.48;;;1.38;;
27163;SDS011;14685;50.618;7.024;2023-08-30T14:14:26;1.88;;;1.48;;
27163;SDS011;14685;50.618;7.024;2023-08-30T14:16:53;1.55;;;1.45;;
27163;SDS011;14685;50.618;7.024;2023-08-30T14:19:19;2.75;;;1.40;;
27163;SDS011;14685;50.618;7.024;2023-08-30T14:21:46;1.58;;;1.48;;
27163;SDS011;14685;50.618;7.024;2023-08-30T14:24:14;2.45;;;1.20;;
27163;SDS011;14685;50.618;7.024;2023-08-30T14:26:43;1.80;;;1.30;;
27163;SDS011;14685;50.618;7.024;2023-08-30T14:29:10;1.70;;;1.40;;
27163;SDS011;14685;50.618;7.024;2023-08-30T14:31:37;1.60;;;1.40;;
27163;SDS011;14685;50.618;7.024;2023-08-30T14:34:04;1.58;;;1.00;;
27163;SDS011;14685;50.618;7.024;2023-08-30T14:36:31;1.17;;;0.95;;
27163;SDS011;14685;50.618;7.024;2023-08-30T14:38:58;1.98;;;1.30;;
27163;SDS011;14685;50.618;7.024;2023-08-30T14:41:26;6.03;;;2.13;;
27163;SDS011;14685;50.618;7.024;2023-08-30T14:43:54;7.57;;;2.97;;
27163;SDS011;14685;50.618;7.024;2023-08-30T14:46:21;13.45;;;6.10;;
27163;SDS011;14685;50.618;7.024;2023-08-30T14:48:49;2.72;;;2.00;;
27163;SDS011;14685;50.618;7.024;2023-08-30T14:51:16;3.70;;;2.00;;
27163;SDS011;14685;50.618;7.024;2023-08-30T14:53:43;3.45;;;1.88;;
27163;SDS011;14685;50.618;7.024;2023-08-30T14:56:10;3.65;;;1.80;;
27163;SDS011;14685;50.618;7.024;2023-08-30T14:58:38;6.47;;;1.90;;
27163;SDS011;14685;50.618;7.024;2023-08-30T15:01:09;3.28;;;1.98;;
27163;SDS011;14685;50.618;7.024;2023-08-30T15:03:36;4.95;;;2.75;;